createdAt,value
2019-03-15T00:00:51.449Z,94890.91
2019-03-15T00:03:24.331Z,94903.31
2019-03-15T00:05:57.467Z,94890.53
2019-03-15T00:08:31.336Z,94895.42
2019-03-15T00:11:04.406Z,94905.80
2019-03-15T00:13:36.531Z,94910.84
2019-03-15T00:16:09.813Z,94905.35
2019-03-15T00:18:42.714Z,94905.35
2019-03-15T00:21:15.770Z,94898.83
2019-03-15T00:23:48.635Z,94897.13
2019-03-15T00:26:21.668Z,94901.95
2019-03-15T00:28:54.718Z,94906.76
2019-03-15T00:31:27.628Z,94904.02
2019-03-15T00:34:00.543Z,94903.57
2019-03-15T00:36:33.351Z,94917.95
2019-03-15T00:39:07.642Z,94924.25
2019-03-15T00:41:40.580Z,94927.95
2019-03-15T00:44:13.585Z,94915.95
2019-03-15T00:46:46.452Z,94917.41
2019-03-15T00:49:19.448Z,94924.06
2019-03-15T00:51:52.640Z,94928.95
2019-03-15T00:54:25.552Z,94925.36
2019-03-15T00:56:58.287Z,94933.92
2019-03-15T00:59:31.207Z,94939.50
2019-03-15T01:02:04.144Z,94940.91
2019-03-15T01:04:36.973Z,94938.44
2019-03-15T01:07:09.926Z,94944.06
2019-03-15T01:09:42.818Z,94949.80
2019-03-15T01:12:15.284Z,94944.80
2019-03-15T01:14:48.143Z,94951.98
2019-03-15T01:17:21.129Z,94952.95
2019-03-15T01:19:53.938Z,94954.25
2019-03-15T01:22:26.833Z,94957.17
2019-03-15T01:24:59.710Z,94955.77
2019-03-15T01:27:32.820Z,94952.95
2019-03-15T01:30:06.215Z,94949.25
2019-03-15T01:32:39.089Z,94952.77
2019-03-15T01:35:11.959Z,94953.95
2019-03-15T01:37:44.756Z,94950.41
2019-03-15T01:40:17.717Z,94952.14
2019-03-15T01:42:50.671Z,94950.59
2019-03-15T01:45:23.569Z,94950.14
2019-03-15T01:47:56.424Z,94943.06
2019-03-15T01:50:29.231Z,94938.36
2019-03-15T01:53:02.234Z,94940.03
2019-03-15T01:55:35.180Z,94939.07
2019-03-15T01:58:08.160Z,94942.80
2019-03-15T02:00:41.869Z,94933.88
2019-03-15T02:03:14.666Z,94943.33
2019-03-15T02:05:47.526Z,94938.77
2019-03-15T02:08:20.839Z,94935.25
2019-03-15T02:10:53.984Z,94938.63
2019-03-15T02:13:26.913Z,94938.63
2019-03-15T02:15:59.860Z,94940.29
2019-03-15T02:18:32.715Z,94937.88
2019-03-15T02:21:05.603Z,94937.58
2019-03-15T02:23:38.393Z,94929.30
2019-03-15T02:26:11.314Z,94927.40
2019-03-15T02:28:44.147Z,94930.66
2019-03-15T02:31:17.134Z,94922.88
2019-03-15T02:33:49.994Z,94938.62
2019-03-15T02:36:22.448Z,94937.36
2019-03-15T02:38:54.532Z,94932.55
2019-03-15T02:41:27.420Z,94925.47
2019-03-15T02:44:00.330Z,94925.91
2019-03-15T02:46:33.310Z,94923.33
2019-03-15T02:49:06.456Z,94914.88
2019-03-15T02:51:41.167Z,94920.06
2019-03-15T02:54:14.074Z,94923.20
2019-03-15T02:56:47.017Z,94931.09
2019-03-15T02:59:21.033Z,94937.46
2019-03-15T03:01:54.437Z,94935.83
2019-03-15T03:04:27.218Z,94939.72
2019-03-15T03:07:00.132Z,94934.79
2019-03-15T03:09:34.179Z,94947.30
2019-03-15T03:12:07.684Z,94932.46
2019-03-15T03:14:40.689Z,94944.34
2019-03-15T03:17:14.001Z,94947.86
2019-03-15T03:19:47.015Z,94955.84
2019-03-15T03:22:19.909Z,94956.00
2019-03-15T03:24:51.894Z,94963.59
2019-03-15T03:27:24.887Z,94970.49
2019-03-15T03:29:56.933Z,94973.80
2019-03-15T03:32:29.774Z,94969.63
2019-03-15T03:35:02.809Z,94971.88
2019-03-15T03:37:35.606Z,94972.06
2019-03-15T03:40:08.744Z,94971.85
2019-03-15T03:42:41.678Z,94959.59
2019-03-15T03:45:14.555Z,94952.84
2019-03-15T03:47:47.414Z,94960.94
2019-03-15T03:50:20.222Z,94966.30
2019-03-15T03:52:53.179Z,94961.30
2019-03-15T03:55:26.000Z,94973.98
2019-03-15T03:57:58.852Z,94966.76
2019-03-15T04:00:31.785Z,94965.45
2019-03-15T04:03:04.291Z,94958.91
2019-03-15T04:05:37.529Z,94958.83
2019-03-15T04:08:10.529Z,94969.01
2019-03-15T04:10:43.407Z,94972.96
2019-03-15T04:13:16.275Z,94970.25
2019-03-15T04:15:49.162Z,94976.28
2019-03-15T04:18:22.185Z,94968.72
2019-03-15T04:20:55.267Z,94957.54
2019-03-15T04:23:28.300Z,94961.09
2019-03-15T04:26:02.711Z,94959.34
2019-03-15T04:28:35.630Z,94959.86
2019-03-15T04:31:08.593Z,94954.47
2019-03-15T04:33:41.541Z,94951.69
2019-03-15T04:36:14.560Z,94945.09
2019-03-15T04:38:47.434Z,94927.42
2019-03-15T04:41:20.388Z,94928.05
2019-03-15T04:43:53.335Z,94926.58
2019-03-15T04:46:26.250Z,94936.75
2019-03-15T04:48:59.316Z,94931.73
2019-03-15T04:51:32.265Z,94922.66
2019-03-15T04:54:05.759Z,94920.92
2019-03-15T04:56:38.780Z,94913.63
2019-03-15T04:59:11.733Z,94901.77
2019-03-15T05:01:44.538Z,94894.52
2019-03-15T05:04:17.370Z,94896.55
2019-03-15T05:06:50.154Z,94901.05
2019-03-15T05:09:23.071Z,94897.75
2019-03-15T05:11:56.094Z,94889.51
2019-03-15T05:14:28.874Z,94877.53
2019-03-15T05:17:02.181Z,94869.25
2019-03-15T05:19:35.269Z,94867.72
2019-03-15T05:22:09.888Z,94869.53
2019-03-15T05:24:42.787Z,94873.86
2019-03-15T05:27:15.681Z,94871.78
2019-03-15T05:29:48.584Z,94878.25
2019-03-15T05:32:21.664Z,94882.14
2019-03-15T05:34:54.542Z,94889.13
2019-03-15T05:37:27.435Z,94885.78
2019-03-15T05:40:00.447Z,94883.95
2019-03-15T05:42:33.297Z,94883.98
2019-03-15T05:45:07.113Z,94895.56
2019-03-15T05:47:40.058Z,94899.18
2019-03-15T05:50:13.150Z,94892.70
2019-03-15T05:52:46.084Z,94904.51
2019-03-15T05:55:19.073Z,94901.19
2019-03-15T05:57:51.976Z,94890.02
2019-03-15T06:00:24.775Z,94893.30
2019-03-15T06:02:57.686Z,94888.54
2019-03-15T06:05:30.474Z,94894.17
2019-03-15T06:08:03.358Z,94907.48
2019-03-15T06:10:36.263Z,94902.94
2019-03-15T06:13:09.215Z,94903.95
2019-03-15T06:15:42.139Z,94911.23
2019-03-15T06:18:14.979Z,94908.73
2019-03-15T06:20:47.830Z,94915.62
2019-03-15T06:23:20.612Z,94908.69
2019-03-15T06:25:53.630Z,94907.88
2019-03-15T06:28:25.695Z,94915.66
2019-03-15T06:30:58.731Z,94913.55
2019-03-15T06:33:33.508Z,94918.80
2019-03-15T06:36:06.378Z,94920.09
2019-03-15T06:38:38.438Z,94918.34
2019-03-15T06:41:14.335Z,94925.30
2019-03-15T06:43:45.965Z,94929.27
2019-03-15T06:46:18.779Z,94931.61
2019-03-15T06:48:52.300Z,94934.87
2019-03-15T06:51:25.199Z,94943.47
2019-03-15T06:54:10.505Z,94938.33
2019-03-15T06:56:33.644Z,94936.91
2019-03-15T06:59:06.104Z,94943.70
2019-03-15T07:01:38.967Z,94944.25
2019-03-15T07:04:11.901Z,94944.62
2019-03-15T07:06:44.841Z,94948.40
2019-03-15T07:09:17.610Z,94943.34
2019-03-15T07:11:50.552Z,94943.42
2019-03-15T07:14:23.466Z,94949.16
2019-03-15T07:16:56.270Z,94954.63
2019-03-15T07:19:30.640Z,94960.69
2019-03-15T07:22:03.551Z,94954.89
2019-03-15T07:24:36.516Z,94955.44
2019-03-15T07:27:13.281Z,94961.25
2019-03-15T07:29:44.264Z,94958.16
2019-03-15T07:32:17.466Z,94969.54
2019-03-15T07:34:50.487Z,94967.55
2019-03-15T07:37:23.595Z,94974.56
2019-03-15T07:39:56.464Z,94978.70
2019-03-15T07:42:29.311Z,94974.67
2019-03-15T07:45:02.287Z,94969.25
2019-03-15T07:47:35.187Z,94975.66
2019-03-15T07:50:09.539Z,94990.39
2019-03-15T07:52:42.564Z,94996.70
2019-03-15T07:55:15.697Z,95001.14
2019-03-15T07:57:48.667Z,94994.27
2019-03-15T08:00:21.847Z,95011.23
2019-03-15T08:02:54.863Z,95001.58
2019-03-15T08:05:27.741Z,95001.20
2019-03-15T08:08:00.801Z,95005.77
2019-03-15T08:10:33.802Z,95012.75
2019-03-15T08:13:05.950Z,95012.74
2019-03-15T08:15:38.936Z,95024.44
2019-03-15T08:18:11.963Z,95025.98
2019-03-15T08:20:44.897Z,95022.74
2019-03-15T08:23:17.932Z,95036.98
2019-03-15T08:25:50.950Z,95036.30
2019-03-15T08:28:23.842Z,95033.36
2019-03-15T08:30:56.895Z,95036.26
2019-03-15T08:33:29.897Z,95054.20
2019-03-15T08:36:02.952Z,95054.61
2019-03-15T08:38:46.908Z,95064.63
2019-03-15T08:41:10.537Z,95074.39
2019-03-15T08:43:46.049Z,95079.88
2019-03-15T08:46:18.204Z,95082.84
2019-03-15T08:48:51.243Z,95086.69
2019-03-15T08:51:24.350Z,95070.56
2019-03-15T08:53:57.232Z,95095.60
2019-03-15T08:56:30.214Z,95098.69
2019-03-15T08:59:03.204Z,95119.99
2019-03-15T09:01:36.128Z,95103.95
2019-03-15T09:04:09.268Z,95100.67
2019-03-15T09:06:42.211Z,95089.78
2019-03-15T09:09:15.210Z,95079.11
2019-03-15T09:11:48.287Z,95073.33
2019-03-15T09:14:22.567Z,95066.95
2019-03-15T09:16:55.472Z,95049.06
2019-03-15T09:19:28.513Z,95047.72
2019-03-15T09:22:01.153Z,95053.34
2019-03-15T09:24:34.174Z,95048.78
2019-03-15T09:27:10.233Z,95058.24
2019-03-15T09:29:41.703Z,95046.64
2019-03-15T09:32:14.731Z,95061.48
2019-03-15T09:34:47.664Z,95067.69
2019-03-15T09:37:20.624Z,95084.75
2019-03-15T09:39:53.554Z,95079.36
2019-03-15T09:42:26.402Z,95083.88
2019-03-15T09:44:59.308Z,95079.56
2019-03-15T09:47:33.833Z,95097.50
2019-03-15T09:50:21.187Z,95091.01
2019-03-15T09:52:42.504Z,95101.50
2019-03-15T09:55:15.634Z,95104.33
2019-03-15T09:57:48.573Z,95101.42
2019-03-15T10:00:21.658Z,95104.12
2019-03-15T10:02:56.213Z,95090.91
2019-03-15T10:05:29.361Z,95098.25
2019-03-15T10:08:02.379Z,95104.48
2019-03-15T10:10:35.319Z,95110.23
2019-03-15T10:13:08.175Z,95116.45
2019-03-15T10:15:41.103Z,95109.23
2019-03-15T10:18:14.241Z,95114.86
2019-03-15T10:20:47.260Z,95116.84
2019-03-15T10:23:20.274Z,95117.86
2019-03-15T10:25:53.179Z,95133.91
2019-03-15T10:28:26.098Z,95148.19
2019-03-15T10:30:59.220Z,95171.98
2019-03-15T10:33:32.053Z,95188.31
2019-03-15T10:36:05.074Z,95189.13
2019-03-15T10:38:37.933Z,95166.70
2019-03-15T10:41:10.931Z,95183.42
2019-03-15T10:43:43.878Z,95194.76
2019-03-15T10:46:16.794Z,95183.63
2019-03-15T10:48:49.672Z,95184.06
2019-03-15T10:51:22.601Z,95187.45
2019-03-15T10:53:55.438Z,95182.36
2019-03-15T10:56:28.288Z,95181.66
2019-03-15T10:59:03.272Z,95179.21
2019-03-15T11:01:36.124Z,95178.92
2019-03-15T11:04:08.991Z,95175.72
2019-03-15T11:06:42.624Z,95175.84
2019-03-15T11:09:15.517Z,95179.06
2019-03-15T11:11:48.392Z,95169.84
2019-03-15T11:14:21.262Z,95186.91
2019-03-15T11:16:54.056Z,95185.89
2019-03-15T11:19:26.920Z,95178.20
2019-03-15T11:22:02.312Z,95174.33
2019-03-15T11:24:35.155Z,95183.00
2019-03-15T11:27:08.119Z,95180.88
2019-03-15T11:29:41.026Z,95183.61
2019-03-15T11:32:14.098Z,95179.71
2019-03-15T11:34:47.009Z,95185.75
2019-03-15T11:37:19.934Z,95184.16
2019-03-15T11:39:52.848Z,95179.14
2019-03-15T11:42:25.784Z,95186.57
2019-03-15T11:44:58.635Z,95194.11
2019-03-15T11:47:45.917Z,95199.83
2019-03-15T11:50:08.664Z,95199.05
2019-03-15T11:52:41.646Z,95193.63
2019-03-15T11:55:14.764Z,95196.84
2019-03-15T11:57:47.690Z,95187.91
2019-03-15T12:00:20.967Z,95198.23
2019-03-15T12:02:53.817Z,95202.76
2019-03-15T12:05:26.757Z,95200.55
2019-03-15T12:07:59.974Z,95202.27
2019-03-15T12:10:34.724Z,95204.18
2019-03-15T12:13:07.667Z,95204.59
2019-03-15T12:15:40.611Z,95214.10
2019-03-15T12:18:13.765Z,95202.15
2019-03-15T12:20:49.238Z,95205.08
2019-03-15T12:23:22.341Z,95207.66
2019-03-15T12:25:55.314Z,95216.17
2019-03-15T12:28:30.443Z,95221.09
2019-03-15T12:31:03.409Z,95218.78
2019-03-15T12:33:36.219Z,95215.67
2019-03-15T12:36:09.266Z,95220.34
2019-03-15T12:38:42.203Z,95215.07
2019-03-15T12:41:15.119Z,95212.86
2019-03-15T12:43:48.035Z,95220.44
2019-03-15T12:46:20.160Z,95218.64
2019-03-15T12:48:53.116Z,95222.83
2019-03-15T12:51:31.971Z,95218.92
2019-03-15T12:54:00.557Z,95227.83
2019-03-15T12:56:35.465Z,95233.76
2019-03-15T12:59:08.503Z,95233.04
2019-03-15T13:01:42.851Z,95228.44
2019-03-15T13:04:15.712Z,95240.17
2019-03-15T13:06:49.090Z,95246.13
2019-03-15T13:09:22.143Z,95247.03
2019-03-15T13:11:54.982Z,95246.15
2019-03-15T13:14:28.314Z,95245.55
2019-03-15T13:17:01.268Z,95243.85
2019-03-15T13:19:34.267Z,95241.44
2019-03-15T13:22:07.302Z,95252.48
2019-03-15T13:24:40.292Z,95259.28
2019-03-15T13:27:13.257Z,95258.35
2019-03-15T13:29:46.273Z,95265.71
2019-03-15T13:32:19.167Z,95264.60
2019-03-15T13:34:52.169Z,95271.14
2019-03-15T13:37:25.014Z,95265.58
2019-03-15T13:39:57.943Z,95263.20
2019-03-15T13:42:30.814Z,95273.17
2019-03-15T13:45:03.743Z,95271.80
2019-03-15T13:47:36.638Z,95278.08
2019-03-15T13:50:11.656Z,95277.98
2019-03-15T13:52:44.690Z,95274.70
2019-03-15T13:55:17.608Z,95280.44
2019-03-15T13:57:50.498Z,95282.91
2019-03-15T14:00:23.422Z,95282.81
2019-03-15T14:02:56.451Z,95270.83
2019-03-15T14:05:29.413Z,95270.53
2019-03-15T14:08:11.827Z,95268.37
2019-03-15T14:10:48.785Z,95268.03
2019-03-15T14:13:12.133Z,95276.43
2019-03-15T14:15:45.245Z,95278.16
2019-03-15T14:18:21.304Z,95274.77
2019-03-15T14:20:52.817Z,95276.69
2019-03-15T14:23:25.647Z,95277.08
2019-03-15T14:25:58.552Z,95284.77
2019-03-15T14:28:31.444Z,95275.52
2019-03-15T14:31:04.449Z,95267.53
2019-03-15T14:33:37.361Z,95265.11
2019-03-15T14:36:10.324Z,95262.53
2019-03-15T14:38:43.082Z,95259.06
2019-03-15T14:41:16.090Z,95254.58
2019-03-15T14:43:49.174Z,95251.16
2019-03-15T14:46:22.238Z,95256.69
2019-03-15T14:48:55.105Z,95263.19
2019-03-15T14:51:27.962Z,95267.45
2019-03-15T14:54:00.831Z,95264.35
2019-03-15T14:56:33.828Z,95262.89
2019-03-15T14:59:06.788Z,95270.33
2019-03-15T15:01:39.683Z,95271.91
2019-03-15T15:04:12.699Z,95256.58
2019-03-15T15:06:45.569Z,95270.81
2019-03-15T15:09:18.476Z,95269.63
2019-03-15T15:11:51.330Z,95273.77
2019-03-15T15:14:24.363Z,95282.28
2019-03-15T15:16:57.398Z,95277.75
2019-03-15T15:19:30.390Z,95279.36
2019-03-15T15:22:03.386Z,95286.45
2019-03-15T15:24:36.342Z,95276.92
2019-03-15T15:27:09.217Z,95260.30
2019-03-15T15:29:42.127Z,95270.97
2019-03-15T15:32:15.459Z,95274.89
2019-03-15T15:34:48.772Z,95268.89
2019-03-15T15:37:21.807Z,95272.28
2019-03-15T15:39:54.663Z,95268.33
2019-03-15T15:42:27.537Z,95274.02
2019-03-15T15:45:00.511Z,95264.70
2019-03-15T15:47:33.488Z,95263.13
2019-03-15T15:50:06.786Z,95270.95
2019-03-15T15:52:39.728Z,95262.84
2019-03-15T15:55:12.624Z,95268.96
2019-03-15T15:57:45.606Z,95273.48
2019-03-15T16:00:18.325Z,95270.08
2019-03-15T16:02:51.265Z,95274.80
2019-03-15T16:05:24.258Z,95276.20
2019-03-15T16:07:57.220Z,95270.29
2019-03-15T16:10:30.124Z,95271.31
2019-03-15T16:13:16.503Z,95267.81
2019-03-15T16:15:37.611Z,95273.56
2019-03-15T16:18:10.671Z,95268.14
2019-03-15T16:20:43.520Z,95259.78
2019-03-15T16:23:16.580Z,95273.15
2019-03-15T16:25:48.779Z,95269.80
2019-03-15T16:28:31.451Z,95264.02
2019-03-15T16:30:59.375Z,95263.81
2019-03-15T16:33:32.258Z,95264.38
2019-03-15T16:36:05.184Z,95261.48
2019-03-15T16:38:38.093Z,95266.16
2019-03-15T16:41:10.988Z,95264.22
2019-03-15T16:43:43.895Z,95266.91
2019-03-15T16:46:16.806Z,95271.62
2019-03-15T16:48:49.690Z,95271.53
2019-03-15T16:51:22.592Z,95275.20
2019-03-15T16:53:55.548Z,95273.90
2019-03-15T16:56:28.433Z,95279.31
2019-03-15T16:59:01.284Z,95271.44
2019-03-15T17:01:34.211Z,95271.70
2019-03-15T17:04:07.047Z,95276.63
2019-03-15T17:06:39.999Z,95282.34
2019-03-15T17:09:12.883Z,95285.14
2019-03-15T17:11:45.845Z,95285.53
2019-03-15T17:14:25.409Z,95299.16
2019-03-15T17:16:53.394Z,95306.63
2019-03-15T17:19:26.218Z,95307.16
2019-03-15T17:21:59.100Z,95311.48
2019-03-15T17:24:32.016Z,95310.60
2019-03-15T17:27:05.123Z,95309.77
2019-03-15T17:29:38.096Z,95315.89
2019-03-15T17:32:11.127Z,95317.36
2019-03-15T17:34:44.051Z,95322.02
2019-03-15T17:37:16.964Z,95328.02
2019-03-15T17:39:50.055Z,95329.09
2019-03-15T17:42:22.890Z,95329.25
2019-03-15T17:44:55.634Z,95334.66
2019-03-15T17:47:28.642Z,95335.05
2019-03-15T17:50:01.557Z,95332.31
2019-03-15T17:52:34.565Z,95332.31
2019-03-15T17:55:07.898Z,95347.29
2019-03-15T17:57:41.196Z,95344.16
2019-03-15T18:00:34.010Z,95343.73
2019-03-15T18:03:19.905Z,95347.31
2019-03-15T18:05:42.535Z,95356.13
2019-03-15T18:08:15.675Z,95365.94
2019-03-15T18:10:48.613Z,95361.97
2019-03-15T18:13:21.558Z,95376.25
2019-03-15T18:15:54.584Z,95371.14
2019-03-15T18:18:27.454Z,95388.41
2019-03-15T18:21:00.412Z,95391.56
2019-03-15T18:23:33.298Z,95389.72
2019-03-15T18:26:06.443Z,95392.56
2019-03-15T18:28:39.314Z,95397.45
2019-03-15T18:31:12.382Z,95388.22
2019-03-15T18:33:45.381Z,95394.84
2019-03-15T18:36:17.720Z,95400.48
2019-03-15T18:38:50.572Z,95387.89
2019-03-15T18:41:23.489Z,95391.99
2019-03-15T18:43:56.417Z,95394.34
2019-03-15T18:46:29.318Z,95391.13
2019-03-15T18:49:03.527Z,95390.15
2019-03-15T18:51:36.633Z,95394.01
2019-03-15T18:54:17.534Z,95387.98
2019-03-15T18:56:44.151Z,95383.94
2019-03-15T18:59:17.131Z,95384.51
2019-03-15T19:01:50.141Z,95390.34
2019-03-15T19:04:23.126Z,95399.84
2019-03-15T19:06:56.365Z,95395.06
2019-03-15T19:09:29.213Z,95393.62
2019-03-15T19:12:02.048Z,95397.48
2019-03-15T19:14:34.551Z,95392.21
2019-03-15T19:17:07.455Z,95398.64
2019-03-15T19:19:40.664Z,95394.69
2019-03-15T19:22:13.706Z,95401.20
2019-03-15T19:24:46.659Z,95401.82
2019-03-15T19:27:19.575Z,95402.85
2019-03-15T19:29:53.940Z,95409.98
2019-03-15T19:32:27.321Z,95414.09
2019-03-15T19:35:00.445Z,95409.20
2019-03-15T19:37:33.343Z,95415.34
2019-03-15T19:40:08.581Z,95403.86
2019-03-15T19:42:44.835Z,95409.98
2019-03-15T19:45:16.303Z,95398.02
2019-03-15T19:47:49.193Z,95408.83
2019-03-15T19:50:22.102Z,95403.42
2019-03-15T19:52:55.114Z,95403.72
2019-03-15T19:55:28.221Z,95406.95
2019-03-15T19:58:01.246Z,95411.67
2019-03-15T20:00:36.790Z,95412.05
2019-03-15T20:03:09.753Z,95417.75
2019-03-15T20:05:42.751Z,95421.55
2019-03-15T20:08:15.861Z,95425.99
2019-03-15T20:10:48.724Z,95422.65
2019-03-15T20:13:21.572Z,95425.44
2019-03-15T20:15:54.508Z,95432.94
2019-03-15T20:18:27.356Z,95426.92
2019-03-15T20:21:00.202Z,95435.03
2019-03-15T20:23:33.166Z,95431.45
2019-03-15T20:26:06.505Z,95438.63
2019-03-15T20:28:39.432Z,95436.47
2019-03-15T20:31:12.526Z,95441.98
2019-03-15T20:33:45.377Z,95448.05
2019-03-15T20:36:18.529Z,95458.23
2019-03-15T20:38:51.481Z,95460.83
2019-03-15T20:41:24.322Z,95462.13
2019-03-15T20:44:00.345Z,95455.94
2019-03-15T20:46:36.015Z,95455.64
2019-03-15T20:49:06.441Z,95461.34
2019-03-15T20:51:39.397Z,95451.73
2019-03-15T20:54:12.456Z,95452.47
2019-03-15T20:56:45.564Z,95450.87
2019-03-15T20:59:18.546Z,95452.80
2019-03-15T21:01:51.600Z,95455.22
2019-03-15T21:04:24.359Z,95465.69
2019-03-15T21:06:57.565Z,95454.27
2019-03-15T21:09:30.529Z,95460.77
2019-03-15T21:12:03.454Z,95463.22
2019-03-15T21:14:36.309Z,95463.95
2019-03-15T21:17:09.270Z,95463.53
2019-03-15T21:19:42.277Z,95467.81
2019-03-15T21:22:15.262Z,95469.12
2019-03-15T21:24:48.287Z,95471.16
2019-03-15T21:27:21.273Z,95472.65
2019-03-15T21:29:54.153Z,95467.44
2019-03-15T21:32:27.223Z,95467.87
2019-03-15T21:35:00.361Z,95480.33
2019-03-15T21:37:33.477Z,95481.44
2019-03-15T21:40:07.415Z,95482.06
2019-03-15T21:42:40.332Z,95480.77
2019-03-15T21:45:13.646Z,95486.16
2019-03-15T21:47:46.692Z,95485.88
2019-03-15T21:50:19.648Z,95477.05
2019-03-15T21:52:52.598Z,95478.47
2019-03-15T21:55:25.536Z,95484.25
2019-03-15T21:57:58.459Z,95488.53
2019-03-15T22:00:31.567Z,95480.04
2019-03-15T22:03:04.582Z,95478.67
2019-03-15T22:05:37.441Z,95470.30
2019-03-15T22:08:10.429Z,95483.01
2019-03-15T22:10:43.339Z,95474.08
2019-03-15T22:13:16.199Z,95489.00
2019-03-15T22:15:48.772Z,95483.30
2019-03-15T22:18:21.617Z,95483.30
2019-03-15T22:20:54.488Z,95489.08
2019-03-15T22:23:27.423Z,95488.13
2019-03-15T22:26:00.303Z,95490.31
2019-03-15T22:28:33.206Z,95485.83
2019-03-15T22:31:16.040Z,95491.59
2019-03-15T22:33:40.729Z,95497.96
2019-03-15T22:36:13.792Z,95493.69
2019-03-15T22:38:46.727Z,95495.33
2019-03-15T22:41:19.617Z,95495.96
2019-03-15T22:43:52.589Z,95497.27
2019-03-15T22:46:25.470Z,95500.68
2019-03-15T22:48:58.259Z,95499.23
2019-03-15T22:51:31.156Z,95501.61
2019-03-15T22:54:04.038Z,95506.19
2019-03-15T22:56:37.046Z,95502.95
2019-03-15T22:59:09.892Z,95511.39
2019-03-15T23:01:42.134Z,95505.55
2019-03-15T23:04:15.232Z,95512.66
2019-03-15T23:06:49.151Z,95509.09
2019-03-15T23:09:21.990Z,95504.11
2019-03-15T23:11:54.996Z,95503.70
2019-03-15T23:14:27.827Z,95508.27
2019-03-15T23:17:00.721Z,95505.14
2019-03-15T23:19:33.887Z,95500.16
2019-03-15T23:22:06.880Z,95493.84
2019-03-15T23:24:39.730Z,95497.00
2019-03-15T23:27:12.685Z,95490.83
2019-03-15T23:29:45.558Z,95497.48
2019-03-15T23:32:18.532Z,95499.20
2019-03-15T23:34:51.437Z,95505.70
2019-03-15T23:37:24.266Z,95499.34
2019-03-15T23:39:57.197Z,95499.61
2019-03-15T23:42:35.937Z,95490.31
2019-03-15T23:45:05.551Z,95491.72
2019-03-15T23:47:38.404Z,95496.00
2019-03-15T23:50:15.055Z,95496.74
2019-03-15T23:52:47.950Z,95500.69
2019-03-15T23:55:20.910Z,95500.02
2019-03-15T23:57:53.798Z,95500.42
